Time;durP1;ratioP1;P1;durP2;ratioP2;P2;SDS_P1;SDS_P2;PMS_P1;PMS_P2;Temp;Humidity;BMP_temperature;BMP_pressure;BME280_temperature;BME280_humidity;BME280_pressure;Samples;Min_cycle;Max_cycle;Signal;HPM_P1;HPM_P2
2021/05/23 00:01:54;;;;;;;22.33;8.88;;;;;;;10.48;62.90;99743.44;125749;1101;22753;-58
2021/05/23 00:04:23;;;;;;;12.10;3.55;;;;;;;10.40;63.05;99743.11;125749;1101;22747;-58
2021/05/23 00:06:53;;;;;;;11.50;2.13;;;;;;;10.35;63.05;99745.81;125739;1095;28435;-58
2021/05/23 00:09:23;;;;;;;9.90;1.85;;;;;;;10.29;62.90;99744.98;125745;1101;24421;-58
2021/05/23 00:11:53;;;;;;;9.53;1.83;;;;;;;10.25;63.09;99750.00;125785;1101;22819;-57
2021/05/23 00:14:22;;;;;;;;;;;;;;;10.20;63.26;99745.89;125787;1101;24142;-55
2021/05/23 00:16:52;;;;;;;7.57;1.33;;;;;;;10.18;63.33;99751.19;125691;1101;21462;-56
2021/05/23 00:19:22;;;;;;;11.43;1.68;;;;;;;10.15;63.36;99745.83;125690;1101;22819;-58
2021/05/23 00:21:52;;;;;;;7.58;1.53;;;;;;;10.13;63.44;99745.55;125770;1101;22829;-57
2021/05/23 00:24:24;;;;;;;6.65;1.45;;;;;;;10.07;63.51;99742.66;125767;1101;22772;-55
2021/05/23 00:26:54;;;;;;;8.20;1.50;;;;;;;10.03;63.67;99747.69;125825;1096;25974;-58
2021/05/23 00:29:24;;;;;;;7.50;1.55;;;;;;;10.01;63.71;99749.42;125811;1101;22870;-55
2021/05/23 00:31:54;;;;;;;7.73;1.38;;;;;;;9.97;63.91;99743.28;125876;1096;22945;-58
2021/05/23 00:34:24;;;;;;;8.98;1.78;;;;;;;9.92;64.05;99741.95;125749;1096;25868;-57
2021/05/23 00:36:54;;;;;;;9.60;2.10;;;;;;;9.88;64.17;99757.34;125856;1101;22743;-58
2021/05/23 00:39:24;;;;;;;8.53;2.10;;;;;;;9.82;64.37;99748.91;125996;1101;22795;-55
2021/05/23 00:41:54;;;;;;;9.78;2.10;;;;;;;9.77;64.42;99747.58;125780;1101;22750;-57
2021/05/23 00:44:24;;;;;;;10.40;2.10;;;;;;;9.74;64.52;99756.15;125835;1096;26289;-55
2021/05/23 00:46:54;;;;;;;8.10;2.33;;;;;;;9.73;64.99;99760.17;125768;1101;22787;-58
2021/05/23 00:49:24;;;;;;;6.35;1.63;;;;;;;9.70;64.68;99755.59;125721;1101;22816;-56
2021/05/23 00:51:54;;;;;;;9.10;1.90;;;;;;;9.66;65.00;99755.77;125816;1096;27597;-55
2021/05/23 00:54:24;;;;;;;8.45;1.98;;;;;;;9.65;64.82;99762.61;125743;1102;22735;-55
2021/05/23 00:56:54;;;;;;;8.80;1.50;;;;;;;9.64;64.78;99761.06;125812;1095;26838;-59
2021/05/23 00:59:24;;;;;;;8.53;1.45;;;;;;;9.62;64.93;99757.98;125759;1096;26210;-60
2021/05/23 01:02:31;;;;;;;10.95;1.73;;;;;;;9.60;64.98;99754.92;125873;1096;27584;-59
2021/05/23 01:05:01;;;;;;;7.17;1.40;;;;;;;9.55;64.94;99754.84;125512;1104;22884;-58
2021/05/23 01:07:32;;;;;;;5.40;1.30;;;;;;;9.50;65.43;99756.29;125448;1099;25925;-55
2021/05/23 01:10:07;;;;;;;6.65;1.40;;;;;;;9.49;65.45;99770.71;125479;1104;22806;-57
2021/05/23 01:13:07;;;;;;;11.20;1.40;;;;;;;9.44;65.62;99763.80;125487;1104;22708;-56
2021/05/23 01:15:44;;;;;;;6.45;1.48;;;;;;;9.41;65.64;99761.22;125399;1105;22689;-58
2021/05/23 01:18:16;;;;;;;7.60;1.50;;;;;;;9.39;65.78;99758.14;125492;1099;28305;-59
2021/05/23 01:20:51;;;;;;;9.53;1.70;;;;;;;9.39;65.59;99761.70;125441;1104;22747;-57
2021/05/23 01:23:27;;;;;;;8.60;1.30;;;;;;;9.37;65.75;99769.00;125446;1104;24429;-56
2021/05/23 01:26:06;;;;;;;8.20;1.30;;;;;;;9.35;65.88;99765.94;125492;1104;23423;-56
2021/05/23 01:28:41;;;;;;;7.70;1.40;;;;;;;9.31;65.88;99760.53;125457;1104;22741;-60
2021/05/23 01:31:14;;;;;;;9.60;1.13;;;;;;;9.27;66.01;99768.32;125510;1100;22811;-57
2021/05/23 01:33:49;;;;;;;7.65;1.20;;;;;;;9.20;65.87;99774.30;125616;1105;22825;-56
2021/05/23 01:36:21;;;;;;;10.80;1.37;;;;;;;9.14;66.07;99775.45;125420;1104;23111;-55
2021/05/23 01:38:51;;;;;;;6.80;1.40;;;;;;;9.03;66.01;99783.59;125507;1098;27160;-57
2021/05/23 01:41:23;;;;;;;6.75;1.40;;;;;;;8.95;66.19;99775.64;125432;1104;22759;-58
2021/05/23 01:43:53;;;;;;;8.67;1.50;;;;;;;8.90;66.34;99772.74;125907;1096;27389;-55
2021/05/23 01:46:23;;;;;;;7.67;1.27;;;;;;;8.86;66.17;99777.73;125868;1101;22764;-57
2021/05/23 01:48:53;;;;;;;9.75;1.50;;;;;;;8.84;66.32;99775.44;125833;1101;22749;-56
2021/05/23 01:51:23;;;;;;;7.80;1.10;;;;;;;8.81;66.36;99767.28;125784;1101;22886;-56
2021/05/23 01:53:53;;;;;;;7.28;1.30;;;;;;;8.75;66.39;99777.55;126015;1101;24155;-57
2021/05/23 01:56:23;;;;;;;5.43;1.20;;;;;;;8.73;66.70;99771.69;125841;1096;25829;-57
2021/05/23 01:58:53;;;;;;;6.00;1.55;;;;;;;8.69;66.60;99776.67;126068;1096;26234;-57
2021/05/23 02:01:25;;;;;;;8.85;1.28;;;;;;;8.66;66.73;99774.83;126185;1096;25925;-56
2021/05/23 02:04:00;;;;;;;9.30;1.57;;;;;;;8.64;66.90;99785.67;125975;1101;22826;-58
2021/05/23 02:06:30;;;;;;;7.33;1.20;;;;;;;8.59;66.96;99784.31;125887;1101;22747;-59
2021/05/23 02:09:01;;;;;;;6.45;1.33;;;;;;;8.57;66.79;99792.37;125978;1096;22823;-58
2021/05/23 02:11:31;;;;;;;6.90;1.10;;;;;;;8.55;67.06;99794.86;125903;1101;22900;-58
2021/05/23 02:14:01;;;;;;;7.45;1.20;;;;;;;8.52;67.00;99792.27;125822;1095;25970;-55
2021/05/23 02:16:33;;;;;;;8.70;1.45;;;;;;;8.49;67.14;99798.77;126021;1101;22828;-57
2021/05/23 02:19:04;;;;;;;6.43;1.00;;;;;;;8.45;67.20;99798.19;126028;1101;22766;-56
2021/05/23 02:21:34;;;;;;;7.10;1.30;;;;;;;8.43;67.36;99809.79;125968;1096;22745;-57
2021/05/23 02:24:06;;;;;;;7.45;1.18;;;;;;;8.41;67.40;99806.72;125979;1096;22754;-58
2021/05/23 02:26:36;;;;;;;7.67;1.10;;;;;;;8.41;67.47;99792.03;125964;1096;27182;-57
2021/05/23 02:29:06;;;;;;;8.13;1.40;;;;;;;8.38;67.64;99806.91;125748;1101;22785;-57
2021/05/23 02:31:37;;;;;;;6.40;1.20;;;;;;;8.37;67.68;99811.69;126017;1101;22738;-58
2021/05/23 02:34:07;;;;;;;7.63;1.35;;;;;;;8.33;67.84;99805.55;126204;1101;23505;-57
2021/05/23 02:36:37;;;;;;;7.38;1.58;;;;;;;8.32;67.90;99812.33;125810;1096;26457;-57
2021/05/23 02:39:07;;;;;;;7.45;1.30;;;;;;;8.31;68.08;99821.16;125758;1101;22797;-57
2021/05/23 02:41:39;;;;;;;8.28;1.40;;;;;;;8.29;67.91;99823.64;125837;1096;22755;-56
2021/05/23 02:44:10;;;;;;;4.27;1.20;;;;;;;8.27;68.07;99817.78;125906;1095;22783;-56
2021/05/23 02:46:39;;;;;;;6.68;1.08;;;;;;;8.26;68.07;99828.13;125694;1101;22750;-58
2021/05/23 02:49:12;;;;;;;9.20;1.20;;;;;;;8.23;67.85;99826.28;125742;1101;22724;-57
2021/05/23 02:51:43;;;;;;;6.85;1.35;;;;;;;8.20;68.21;99832.78;125892;1101;22846;-57
2021/05/23 02:54:12;;;;;;;;;;;;;;;8.16;68.10;99834.97;125828;1101;22725;-57
2021/05/23 02:56:42;;;;;;;6.43;1.10;;;;;;;8.13;68.02;99825.55;125785;1096;21925;-57
2021/05/23 02:59:12;;;;;;;6.35;1.00;;;;;;;8.11;68.24;99825.25;125752;1101;22731;-56
2021/05/23 03:01:43;;;;;;;8.87;1.33;;;;;;;8.08;68.16;99833.78;125801;1095;27301;-58
2021/05/23 03:04:14;;;;;;;5.13;1.00;;;;;;;8.05;68.22;99827.14;125800;1096;26874;-55
2021/05/23 03:06:44;;;;;;;7.97;1.30;;;;;;;8.02;68.17;99832.89;125852;1101;22755;-56
2021/05/23 03:09:14;;;;;;;7.57;1.27;;;;;;;7.97;68.19;99828.73;125811;1101;22857;-56
2021/05/23 03:11:46;;;;;;;7.30;1.30;;;;;;;7.93;67.78;99824.59;125797;1101;24578;-57
2021/05/23 03:14:18;;;;;;;7.57;1.30;;;;;;;7.87;68.32;99829.25;126012;1101;22827;-55
2021/05/23 03:16:48;;;;;;;5.70;1.13;;;;;;;7.82;68.38;99825.09;125902;1101;22800;-58
2021/05/23 03:19:18;;;;;;;6.53;1.18;;;;;;;7.77;68.22;99831.31;125786;1096;25830;-56
2021/05/23 03:21:50;;;;;;;6.25;1.10;;;;;;;7.70;68.33;99834.41;125872;1101;22846;-56
2021/05/23 03:24:21;;;;;;;7.80;1.20;;;;;;;7.67;68.47;99834.59;126126;1096;22747;-57
2021/05/23 03:26:51;;;;;;;5.25;1.05;;;;;;;7.62;68.57;99840.77;125652;1101;23455;-60
2021/05/23 03:29:22;;;;;;;6.10;1.20;;;;;;;7.59;68.67;99838.95;125840;1101;22758;-57
2021/05/23 03:31:52;;;;;;;4.80;1.08;;;;;;;7.55;68.80;99838.34;125843;1101;22737;-55
2021/05/23 03:34:23;;;;;;;7.15;1.13;;;;;;;7.50;69.10;99830.63;125800;1101;22755;-56
2021/05/23 03:36:54;;;;;;;10.20;1.60;;;;;;;7.50;69.43;99836.19;125794;1101;22823;-57
2021/05/23 03:39:24;;;;;;;11.30;2.03;;;;;;;7.49;69.45;99835.41;126375;1101;22695;-55
2021/05/23 03:41:54;;;;;;;8.15;1.65;;;;;;;7.49;69.59;99835.41;125838;1101;22809;-58
2021/05/23 03:44:24;;;;;;;7.00;1.30;;;;;;;7.52;69.82;99842.83;125812;1096;27113;-57
2021/05/23 03:46:54;;;;;;;8.83;1.70;;;;;;;7.54;70.00;99851.45;125843;1095;27378;-57
2021/05/23 03:49:25;;;;;;;6.23;1.33;;;;;;;7.55;69.92;99855.79;125873;1095;26002;-56
2021/05/23 03:51:57;;;;;;;7.50;1.53;;;;;;;7.58;69.98;99867.95;126073;1101;24377;-55
2021/05/23 03:54:28;;;;;;;9.70;1.50;;;;;;;7.60;70.21;99868.25;126045;1101;22772;-57
2021/05/23 03:56:58;;;;;;;7.33;1.60;;;;;;;7.63;70.27;99859.00;125949;1096;22768;-57
2021/05/23 03:59:28;;;;;;;10.40;2.15;;;;;;;7.70;70.46;99858.64;125906;1101;22754;-56
2021/05/23 04:01:59;;;;;;;5.80;1.10;;;;;;;7.77;70.59;99861.88;126061;1101;22899;-55
2021/05/23 04:04:45;;;;;;;5.05;1.15;;;;;;;7.85;70.89;99865.08;126112;1101;22750;-57
2021/05/23 04:07:17;;;;;;;6.50;1.13;;;;;;;7.94;70.96;99871.39;126043;1101;24379;-56
2021/05/23 04:09:48;;;;;;;9.20;1.70;;;;;;;8.03;71.24;99881.67;126273;1096;22716;-55
2021/05/23 04:12:22;;;;;;;8.60;1.80;;;;;;;8.11;71.27;99882.89;126083;1101;22766;-56
2021/05/23 04:14:53;;;;;;;9.60;1.67;;;;;;;8.19;71.13;99887.62;126134;1101;22755;-57
2021/05/23 04:17:25;;;;;;;8.40;1.70;;;;;;;8.30;71.08;99892.69;126066;1101;22785;-54
2021/05/23 04:19:55;;;;;;;10.53;1.40;;;;;;;8.38;71.21;99891.09;126008;1096;22817;-54
2021/05/23 04:22:25;;;;;;;6.48;1.18;;;;;;;8.48;71.09;99895.39;126129;1096;25739;-54
2021/05/23 04:24:56;;;;;;;5.03;1.23;;;;;;;8.59;71.13;99903.95;126063;1096;26197;-56
2021/05/23 04:27:27;;;;;;;7.90;1.23;;;;;;;8.68;71.22;99909.47;126020;1101;22750;-58
2021/05/23 04:29:57;;;;;;;5.83;1.10;;;;;;;8.79;71.18;99911.72;126157;1101;22802;-55
2021/05/23 04:32:27;;;;;;;8.58;1.03;;;;;;;8.91;71.16;99916.27;126027;1101;22768;-60
2021/05/23 04:34:58;;;;;;;6.33;1.10;;;;;;;9.02;71.14;99922.07;126012;1096;26514;-57
2021/05/23 04:37:27;;;;;;;;;;;;;;;9.15;71.32;99905.85;125878;1101;22761;-58
2021/05/23 04:39:58;;;;;;;10.20;2.45;;;;;;;9.28;71.05;99905.59;125890;1101;21935;-56
2021/05/23 04:42:27;;;;;;;6.93;1.20;;;;;;;9.37;70.89;99897.16;125743;1101;22772;-57
2021/05/23 04:44:58;;;;;;;7.23;1.38;;;;;;;9.46;70.88;99899.83;125816;1096;22816;-54
2021/05/23 04:47:29;;;;;;;8.60;1.13;;;;;;;9.54;70.55;99901.77;125795;1101;24390;-58
2021/05/23 04:49:59;;;;;;;7.87;1.73;;;;;;;9.60;70.62;99905.41;125785;1101;22768;-57
2021/05/23 04:52:29;;;;;;;6.73;1.20;;;;;;;9.68;70.62;99911.39;125878;1101;22765;-55
2021/05/23 04:55:00;;;;;;;8.90;1.20;;;;;;;9.73;70.32;99905.90;125808;1101;23036;-57
2021/05/23 04:57:32;;;;;;;5.88;1.15;;;;;;;9.82;70.49;99910.61;125889;1101;22809;-57
2021/05/23 05:00:02;;;;;;;6.97;1.10;;;;;;;9.89;70.57;99901.84;125897;1101;22761;-58
2021/05/23 05:02:33;;;;;;;5.98;1.20;;;;;;;9.99;70.48;99903.29;126021;1101;22761;-58
2021/05/23 05:05:03;;;;;;;11.40;1.27;;;;;;;10.09;70.10;99898.36;125835;1101;22731;-57
2021/05/23 05:07:33;;;;;;;;;;;;;;;10.19;69.88;99888.64;126083;1101;22826;-56
2021/05/23 05:10:04;;;;;;;6.87;0.93;;;;;;;10.27;69.76;99898.14;125792;1101;21461;-56
2021/05/23 05:12:34;;;;;;;5.00;0.90;;;;;;;10.38;69.79;99887.16;125789;1101;22740;-57
2021/05/23 05:15:05;;;;;;;8.08;1.08;;;;;;;10.47;69.45;99887.78;126309;1101;22727;-58
2021/05/23 05:17:35;;;;;;;10.40;1.30;;;;;;;10.58;69.48;99890.73;125861;1101;22747;-57
2021/05/23 05:20:09;;;;;;;4.13;0.87;;;;;;;10.71;69.57;99889.61;125746;1096;26229;-56
2021/05/23 05:22:39;;;;;;;4.90;1.00;;;;;;;10.82;69.19;99898.14;125846;1097;22727;-59
2021/05/23 05:25:09;;;;;;;;;;;;;;;10.94;69.26;99908.19;125902;1095;27192;-58
2021/05/23 05:27:39;;;;;;;5.00;1.23;;;;;;;11.05;69.40;99902.74;125931;1101;21468;-58
2021/05/23 05:30:11;;;;;;;8.63;1.13;;;;;;;11.16;69.62;99900.06;125913;1101;22731;-65
2021/05/23 05:32:41;;;;;;;6.60;1.23;;;;;;;11.30;68.81;99890.80;125888;1101;22774;-56
2021/05/23 05:35:12;;;;;;;8.68;1.30;;;;;;;11.35;68.68;99895.70;125798;1101;22771;-57
2021/05/23 05:37:42;;;;;;;9.10;1.40;;;;;;;11.39;68.22;99888.63;125788;1096;22765;-57
2021/05/23 05:40:14;;;;;;;8.20;1.20;;;;;;;11.48;68.54;99898.89;125729;1101;22756;-56
2021/05/23 05:42:44;;;;;;;8.97;1.30;;;;;;;11.57;68.31;99904.30;125857;1101;22761;-63
2021/05/23 05:45:16;;;;;;;9.25;1.30;;;;;;;11.63;68.35;99913.50;125810;1095;25868;-58
2021/05/23 05:47:46;;;;;;;7.30;1.17;;;;;;;11.72;68.05;99907.00;125738;1096;22738;-59
2021/05/23 05:50:18;;;;;;;7.30;1.35;;;;;;;11.80;68.19;99900.47;125775;1095;25871;-58
2021/05/23 05:52:48;;;;;;;9.20;1.43;;;;;;;11.91;67.42;99903.38;125662;1096;24391;-58
2021/05/23 05:55:19;;;;;;;5.43;1.10;;;;;;;11.94;67.44;99893.97;125469;1101;22768;-58
2021/05/23 05:57:48;;;;;;;5.85;1.13;;;;;;;11.98;67.98;99904.95;129960;1101;23316;-59
2021/05/23 06:00:21;;;;;;;9.70;1.38;;;;;;;12.07;67.50;99904.75;128817;1101;22841;-57
2021/05/23 06:02:50;;;;;;;7.53;1.20;;;;;;;12.16;67.52;99907.38;125737;1096;27166;-59
2021/05/23 06:05:21;;;;;;;7.20;1.20;;;;;;;12.25;67.45;99912.02;125884;1101;22832;-57
2021/05/23 06:07:51;;;;;;;9.23;1.20;;;;;;;12.37;67.59;99924.81;126121;1096;25925;-56
2021/05/23 06:10:21;;;;;;;5.25;1.00;;;;;;;12.51;67.79;99935.08;125875;1096;27156;-58
2021/05/23 06:12:51;;;;;;;7.85;1.48;;;;;;;12.64;66.65;99922.16;125756;1101;23265;-63
2021/05/23 06:15:24;;;;;;;8.77;1.43;;;;;;;12.76;66.35;99928.61;125884;1101;22750;-58
2021/05/23 06:17:54;;;;;;;7.28;1.10;;;;;;;12.85;66.02;99931.19;125780;1101;22816;-58
2021/05/23 06:20:24;;;;;;;6.63;1.20;;;;;;;12.92;66.10;99939.13;125737;1096;26737;-57
2021/05/23 06:22:54;;;;;;;8.75;1.30;;;;;;;13.00;66.29;99935.34;125774;1096;26216;-58
2021/05/23 06:25:24;;;;;;;6.40;1.30;;;;;;;13.13;66.37;99939.75;125713;1096;22772;-56
2021/05/23 06:27:54;;;;;;;7.38;1.40;;;;;;;13.23;66.11;99941.83;125799;1101;22985;-58
2021/05/23 06:30:25;;;;;;;5.33;1.05;;;;;;;13.31;65.84;99937.27;125837;1101;23487;-57
2021/05/23 06:32:55;;;;;;;6.75;1.10;;;;;;;13.36;66.30;99949.78;125915;1101;22754;-58
2021/05/23 06:35:25;;;;;;;7.80;1.13;;;;;;;13.40;66.17;99959.48;125710;1101;22772;-58
2021/05/23 06:37:55;;;;;;;7.55;1.10;;;;;;;13.46;65.77;99957.45;125816;1101;22763;-56
2021/05/23 06:40:28;;;;;;;6.23;1.10;;;;;;;13.50;65.56;99957.20;125908;1101;22755;-59
2021/05/23 06:42:58;;;;;;;5.90;1.10;;;;;;;13.56;65.70;99952.38;125771;1101;24246;-58
2021/05/23 06:45:28;;;;;;;6.55;1.10;;;;;;;13.64;65.40;99951.38;125883;1101;22778;-60
2021/05/23 06:47:58;;;;;;;4.20;0.95;;;;;;;13.75;65.80;99948.59;125775;1101;22803;-59
2021/05/23 06:50:29;;;;;;;9.18;0.90;;;;;;;13.88;65.46;99955.75;126036;1101;22751;-60
2021/05/23 06:52:59;;;;;;;5.50;0.90;;;;;;;14.00;65.09;99951.67;125798;1101;22806;-58
2021/05/23 06:55:30;;;;;;;6.30;0.90;;;;;;;14.09;63.86;99957.79;125775;1096;25972;-58
2021/05/23 06:58:00;;;;;;;3.95;0.80;;;;;;;14.18;63.57;99962.39;125849;1095;26027;-58
2021/05/23 07:00:30;;;;;;;3.63;0.70;;;;;;;14.25;63.71;99962.66;125757;1096;27153;-58
2021/05/23 07:03:00;;;;;;;6.70;0.90;;;;;;;14.35;63.27;99957.57;125871;1101;22764;-58
2021/05/23 07:05:31;;;;;;;5.45;0.70;;;;;;;14.39;61.26;99956.04;125795;1101;24144;-57
2021/05/23 07:08:01;;;;;;;5.17;0.60;;;;;;;14.48;60.85;99957.82;125956;1101;22768;-58
2021/05/23 07:10:31;;;;;;;3.40;0.45;;;;;;;14.58;59.90;99953.45;125821;1101;24141;-59
2021/05/23 07:13:00;;;;;;;;;;;;;;;14.67;59.52;99958.78;125817;1101;22947;-57
2021/05/23 07:15:30;;;;;;;4.80;0.43;;;;;;;14.75;59.18;99956.23;125980;1096;21461;-58
2021/05/23 07:18:00;;;;;;;2.53;0.35;;;;;;;14.81;58.42;99954.17;125958;1095;22733;-58
2021/05/23 07:20:31;;;;;;;5.07;0.40;;;;;;;14.83;57.89;99960.05;125949;1101;23477;-58
2021/05/23 07:23:01;;;;;;;4.88;0.40;;;;;;;14.82;57.60;99959.27;125865;1101;22907;-60
2021/05/23 07:25:33;;;;;;;4.13;0.60;;;;;;;14.86;57.44;99964.62;125851;1096;25874;-58
2021/05/23 07:28:03;;;;;;;4.35;0.60;;;;;;;14.93;57.64;99961.29;126057;1101;22756;-60
2021/05/23 07:30:32;;;;;;;;;;;;;;;15.00;56.35;99975.56;125930;1101;22825;-58
2021/05/23 07:33:02;;;;;;;4.20;0.70;;;;;;;15.08;57.81;99968.13;125789;1101;21528;-57
2021/05/23 07:35:32;;;;;;;3.00;0.40;;;;;;;15.25;57.23;99974.45;125815;1096;27265;-59
2021/05/23 07:38:01;;;;;;;5.28;0.50;;;;;;;15.42;56.67;99963.13;125865;1096;22765;-59
2021/05/23 07:40:31;;;;;;;5.70;0.60;;;;;;;15.50;53.66;99974.64;125820;1101;22760;-57
2021/05/23 07:43:03;;;;;;;5.65;0.60;;;;;;;15.51;54.74;99976.16;125853;1101;22760;-58
2021/05/23 07:45:33;;;;;;;3.10;0.40;;;;;;;15.52;54.43;99970.00;125939;1101;24161;-58
2021/05/23 07:48:04;;;;;;;3.95;0.40;;;;;;;15.56;54.63;99970.49;125973;1101;22765;-60
2021/05/23 07:50:34;;;;;;;2.80;0.30;;;;;;;15.59;53.49;99966.65;126012;1095;27326;-56
2021/05/23 07:53:04;;;;;;;3.60;0.30;;;;;;;15.63;52.85;99984.02;125888;1101;22737;-58
2021/05/23 07:55:35;;;;;;;2.88;0.38;;;;;;;15.67;53.17;99986.55;125875;1096;26235;-57
2021/05/23 07:58:05;;;;;;;3.35;0.30;;;;;;;15.77;53.50;99985.72;125836;1102;22727;-59
2021/05/23 08:00:35;;;;;;;2.73;0.35;;;;;;;15.91;53.50;99970.53;125966;1101;22826;-59
2021/05/23 08:03:05;;;;;;;4.50;0.50;;;;;;;16.08;52.63;99974.00;125892;1101;23459;-58
2021/05/23 08:05:35;;;;;;;4.45;0.60;;;;;;;16.18;52.64;99968.79;125866;1096;25665;-57
2021/05/23 08:08:06;;;;;;;6.13;0.50;;;;;;;16.28;51.64;99969.23;125778;1101;22766;-65
2021/05/23 08:10:36;;;;;;;5.05;0.30;;;;;;;16.21;51.19;99981.84;125940;1101;24398;-58
2021/05/23 08:13:07;;;;;;;6.25;0.50;;;;;;;16.19;51.24;99981.59;125821;1101;22782;-57
2021/05/23 08:15:37;;;;;;;4.10;0.50;;;;;;;16.17;51.49;99976.50;126037;1101;22815;-59
2021/05/23 08:18:07;;;;;;;;;;;;;;;16.20;51.05;99971.88;125886;1096;25822;-58
2021/05/23 08:20:40;;;;;;;3.33;0.30;;;;;;;16.12;50.82;99974.48;126092;1101;21490;-59
2021/05/23 08:23:10;;;;;;;5.87;0.50;;;;;;;16.03;50.34;99990.94;125749;1101;22750;-61
2021/05/23 08:25:40;;;;;;;2.13;0.30;;;;;;;16.02;50.64;99987.35;125829;1101;22754;-62
2021/05/23 08:28:19;;;;;;;4.10;0.40;;;;;;;16.00;50.64;100006.05;125898;1101;22738;-60
2021/05/23 08:30:49;;;;;;;3.95;0.40;;;;;;;15.99;50.95;100004.53;125862;1101;22750;-59
2021/05/23 08:33:19;;;;;;;2.87;0.33;;;;;;;15.97;50.29;100013.48;125894;1101;22913;-58
2021/05/23 08:35:49;;;;;;;2.90;0.20;;;;;;;15.94;50.18;100013.77;125824;1101;22973;-60
2021/05/23 08:38:19;;;;;;;3.88;0.30;;;;;;;15.96;50.07;100017.60;125845;1096;22809;-59
2021/05/23 08:40:50;;;;;;;3.43;0.30;;;;;;;15.94;50.07;100022.98;125950;1101;22812;-59
2021/05/23 08:43:24;;;;;;;2.00;0.20;;;;;;;15.91;49.41;100028.91;125738;1096;22772;-59
2021/05/23 08:45:55;;;;;;;3.97;0.50;;;;;;;15.87;49.31;100022.79;125879;1096;22758;-60
2021/05/23 08:48:23;;;;;;;;;;;;;;;15.87;49.95;100026.34;125851;1095;27268;-60
2021/05/23 08:50:54;;;;;;;3.00;0.30;;;;;;;15.89;49.70;100040.66;125735;1096;25753;-60
2021/05/23 08:53:26;;;;;;;3.10;0.35;;;;;;;15.88;48.94;100044.78;125841;1101;23004;-58
2021/05/23 08:55:56;;;;;;;1.63;0.30;;;;;;;15.83;48.75;100047.64;125798;1101;22817;-58
2021/05/23 08:58:28;;;;;;;2.30;0.30;;;;;;;15.82;49.09;100054.54;125795;1101;24574;-59
2021/05/23 09:00:58;;;;;;;4.10;0.50;;;;;;;15.85;49.42;100051.44;125879;1101;23025;-59
2021/05/23 09:03:28;;;;;;;5.25;0.50;;;;;;;15.89;48.52;100051.92;125893;1096;24713;-57
2021/05/23 09:05:59;;;;;;;6.40;0.30;;;;;;;15.88;49.26;100050.41;125852;1096;22763;-59
2021/05/23 09:08:30;;;;;;;6.60;0.40;;;;;;;15.92;49.45;100048.08;125783;1096;27233;-58
2021/05/23 09:11:04;;;;;;;4.05;0.30;;;;;;;16.00;49.37;100048.28;125919;1101;22813;-59
2021/05/23 09:13:36;;;;;;;4.25;0.40;;;;;;;16.06;49.13;100046.20;125969;1101;23520;-57
2021/05/23 09:16:08;;;;;;;4.80;0.40;;;;;;;16.09;49.02;100037.49;125888;1096;25864;-58
2021/05/23 09:18:44;;;;;;;2.35;0.35;;;;;;;16.14;49.63;100045.13;125951;1096;23195;-58
2021/05/23 09:21:15;;;;;;;2.75;0.30;;;;;;;16.20;49.32;100048.66;126036;1101;22929;-58
2021/05/23 09:23:49;;;;;;;2.80;0.30;;;;;;;16.28;49.04;100046.06;125856;1101;24540;-59
2021/05/23 09:26:21;;;;;;;1.60;0.30;;;;;;;16.36;48.44;100049.84;125909;1101;22873;-60
2021/05/23 09:28:53;;;;;;;1.40;0.30;;;;;;;16.42;49.06;100042.11;125874;1096;22728;-59
2021/05/23 09:31:26;;;;;;;2.05;0.30;;;;;;;16.48;47.79;100048.47;125844;1101;22727;-58
2021/05/23 09:33:56;;;;;;;1.47;0.23;;;;;;;16.53;48.30;100058.94;125909;1101;22899;-58
2021/05/23 09:36:27;;;;;;;2.47;0.20;;;;;;;16.55;48.03;100061.26;125813;1101;22974;-59
2021/05/23 09:38:59;;;;;;;4.27;0.30;;;;;;;16.61;48.03;100071.20;125692;1101;23360;-59
2021/05/23 09:41:31;;;;;;;6.87;0.30;;;;;;;16.68;47.70;100076.25;125900;1096;27651;-59
2021/05/23 09:44:18;;;;;;;3.70;0.20;;;;;;;16.77;47.85;100075.16;126876;1101;22764;-59
2021/05/23 09:47:00;;;;;;;4.75;0.40;;;;;;;16.85;47.59;100078.92;125826;1101;22754;-59
2021/05/23 09:49:40;;;;;;;1.80;0.30;;;;;;;16.85;46.87;100084.56;127025;1101;22768;-59
2021/05/23 09:52:13;;;;;;;1.48;0.20;;;;;;;16.85;46.84;100090.97;125721;1101;24442;-59
2021/05/23 09:54:49;;;;;;;1.45;0.20;;;;;;;16.91;47.15;100086.05;125887;1101;22812;-59
2021/05/23 09:57:21;;;;;;;3.70;0.40;;;;;;;16.96;46.92;100090.88;125833;1096;22813;-59
2021/05/23 10:00:02;;;;;;;3.35;0.55;;;;;;;16.98;46.09;100084.70;125939;1101;22764;-59
2021/05/23 10:02:31;;;;;;;2.43;0.27;;;;;;;16.91;45.75;100085.27;126150;1101;23366;-61
2021/05/23 10:05:07;;;;;;;2.60;0.25;;;;;;;16.83;46.10;100087.14;125730;1101;22826;-59
2021/05/23 10:07:37;;;;;;;3.80;0.30;;;;;;;16.78;46.20;100080.26;126136;1096;22922;-62
2021/05/23 10:10:09;;;;;;;4.15;0.20;;;;;;;16.74;45.80;100099.52;125737;1101;22738;-60
2021/05/23 10:12:40;;;;;;;1.80;0.20;;;;;;;16.66;46.36;100101.38;126150;1096;23450;-59
2021/05/23 10:15:12;;;;;;;2.70;0.30;;;;;;;16.59;45.86;100090.69;125779;1096;25858;-62
2021/05/23 10:17:43;;;;;;;3.47;0.30;;;;;;;16.58;46.50;100100.42;125858;1096;27135;-62
2021/05/23 10:20:14;;;;;;;4.00;0.40;;;;;;;16.56;45.99;100096.59;125776;1101;22772;-62
2021/05/23 10:22:45;;;;;;;5.50;0.40;;;;;;;16.54;46.40;100087.89;126200;1101;22823;-62
2021/05/23 10:25:15;;;;;;;1.33;0.20;;;;;;;16.50;46.76;100102.28;125755;1101;22815;-62
2021/05/23 10:27:47;;;;;;;2.50;0.20;;;;;;;16.45;47.13;100100.22;125854;1101;22870;-62
2021/05/23 10:30:19;;;;;;;6.35;0.50;;;;;;;16.38;47.54;100100.80;126082;1101;22891;-64
2021/05/23 10:32:52;;;;;;;4.00;0.60;;;;;;;16.32;47.61;100110.57;126318;1101;22763;-62
2021/05/23 10:35:25;;;;;;;3.23;0.23;;;;;;;16.24;48.28;100106.78;125809;1101;22870;-62
2021/05/23 10:37:55;;;;;;;4.70;0.30;;;;;;;16.23;48.74;100110.88;125728;1096;25903;-61
2021/05/23 10:40:25;;;;;;;;;;;;;;;16.28;48.96;100102.41;125781;1096;25989;-62
2021/05/23 10:42:55;;;;;;;;;;;;;;;16.32;49.20;100105.70;125816;1101;21461;-63
2021/05/23 10:45:27;;;;;;;4.83;0.50;;;;;;;16.38;49.22;100108.48;125735;1101;21464;-61
2021/05/23 10:47:59;;;;;;;4.50;0.20;;;;;;;16.44;48.90;100101.52;125985;1101;22765;-62
2021/05/23 10:50:39;;;;;;;5.00;0.45;;;;;;;16.48;49.22;100104.83;126154;1096;22751;-63
2021/05/23 10:53:09;;;;;;;2.43;0.40;;;;;;;16.53;49.28;100094.83;126036;1096;27348;-63
2021/05/23 10:55:49;;;;;;;4.53;0.30;;;;;;;16.60;49.65;100102.70;125808;1101;22799;-62
2021/05/23 10:58:24;;;;;;;5.97;0.40;;;;;;;16.68;49.62;100098.80;125905;1101;22827;-61
2021/05/23 11:00:56;;;;;;;3.83;0.50;;;;;;;16.73;48.99;100100.05;125850;1101;22775;-62
2021/05/23 11:03:27;;;;;;;1.90;0.40;;;;;;;16.77;49.13;100095.66;125751;1101;22859;-64
2021/05/23 11:06:07;;;;;;;2.35;0.35;;;;;;;16.81;48.79;100090.50;125762;1096;25865;-62
2021/05/23 11:08:39;;;;;;;4.63;0.50;;;;;;;16.86;49.55;100089.67;125868;1101;22768;-62
2021/05/23 11:11:21;;;;;;;3.70;0.50;;;;;;;16.95;49.13;100088.56;126028;1097;22819;-59
2021/05/23 11:13:51;;;;;;;3.23;0.50;;;;;;;17.06;49.60;100090.52;125760;1096;24471;-59
2021/05/23 11:16:21;;;;;;;3.43;0.33;;;;;;;17.14;49.22;100083.77;125686;1096;26225;-59
2021/05/23 11:18:53;;;;;;;3.38;0.35;;;;;;;17.22;48.76;100084.72;125781;1101;22734;-60
2021/05/23 11:21:25;;;;;;;5.85;0.60;;;;;;;17.25;48.58;100089.31;125735;1095;27180;-55
2021/05/23 11:23:55;;;;;;;;;;;;;;;17.29;48.68;100086.19;125711;1101;22752;-60
2021/05/23 11:26:28;;;;;;;3.83;0.50;;;;;;;17.26;48.74;100082.36;125928;1101;21467;-58
2021/05/23 11:28:59;;;;;;;3.05;0.40;;;;;;;17.35;48.72;100090.48;125898;1101;22764;-58
2021/05/23 11:31:33;;;;;;;2.80;0.47;;;;;;;17.41;48.73;100073.48;125786;1101;24432;-59
2021/05/23 11:34:05;;;;;;;3.20;0.67;;;;;;;17.50;48.87;100079.58;125955;1101;24306;-55
2021/05/23 11:36:37;;;;;;;3.17;0.53;;;;;;;17.59;48.53;100073.55;125850;1101;22813;-62
2021/05/23 11:39:11;;;;;;;7.30;0.30;;;;;;;17.71;49.31;100074.19;125860;1096;26449;-62
2021/05/23 11:41:43;;;;;;;2.70;0.30;;;;;;;17.86;48.84;100068.84;125941;1096;22799;-58
2021/05/23 11:44:14;;;;;;;3.57;0.47;;;;;;;17.99;48.91;100071.75;125908;1101;24565;-59
2021/05/23 11:46:50;;;;;;;3.40;0.40;;;;;;;18.13;48.79;100064.09;125904;1096;22914;-59
2021/05/23 11:49:22;;;;;;;3.10;0.50;;;;;;;18.23;48.64;100068.09;125907;1101;24235;-58